createdAt,value
2017-12-19T00:00:56.146Z,62.56
2017-12-19T00:01:56.103Z,63.79
2017-12-19T00:02:56.068Z,63.13
2017-12-19T00:03:56.025Z,62.66
2017-12-19T00:04:55.979Z,60.86
2017-12-19T00:05:55.939Z,58.97
2017-12-19T00:06:55.891Z,56.70
2017-12-19T00:07:55.856Z,55.27
2017-12-19T00:08:55.808Z,54.33
2017-12-19T00:09:55.773Z,53.76
2017-12-19T00:10:55.722Z,52.34
2017-12-19T00:11:55.678Z,50.73
2017-12-19T00:12:55.639Z,50.73
2017-12-19T00:13:55.592Z,51.58
2017-12-19T00:14:55.553Z,51.87
2017-12-19T00:15:55.502Z,50.26
2017-12-19T00:16:55.475Z,48.93
2017-12-19T00:17:55.423Z,47.70
2017-12-19T00:18:55.386Z,46.85
2017-12-19T00:19:55.343Z,46.47
2017-12-19T00:20:55.309Z,45.72
2017-12-19T00:21:55.251Z,45.43
2017-12-19T00:22:55.208Z,46.56
2017-12-19T00:23:55.164Z,48.46
2017-12-19T00:24:55.124Z,50.26
2017-12-19T00:25:55.096Z,51.68
2017-12-19T00:26:55.038Z,52.25
2017-12-19T00:27:55.005Z,52.15
2017-12-19T00:28:54.958Z,53.09
2017-12-19T00:29:54.920Z,53.76
2017-12-19T00:30:54.883Z,55.37
2017-12-19T00:31:54.829Z,55.56
2017-12-19T00:32:54.787Z,54.33
2017-12-19T00:33:54.737Z,53.57
2017-12-19T00:34:54.694Z,53.38
2017-12-19T00:35:54.658Z,52.06
2017-12-19T00:36:54.616Z,51.20
2017-12-19T00:37:54.578Z,50.63
2017-12-19T00:38:54.527Z,47.99
2017-12-19T00:39:54.485Z,47.13
2017-12-19T00:40:54.443Z,46.56
2017-12-19T00:41:54.408Z,45.81
2017-12-19T00:42:54.367Z,46.66
2017-12-19T00:43:54.316Z,47.32
2017-12-19T00:44:54.274Z,47.99
2017-12-19T00:45:54.231Z,50.07
2017-12-19T00:46:54.185Z,51.77
2017-12-19T00:47:54.142Z,53.47
2017-12-19T00:48:54.117Z,53.66
2017-12-19T00:49:54.056Z,55.37
2017-12-19T00:50:54.014Z,56.60
2017-12-19T00:51:53.971Z,56.88
2017-12-19T00:52:53.980Z,56.98
2017-12-19T00:53:53.886Z,55.46
2017-12-19T00:54:53.840Z,55.18
2017-12-19T00:55:53.806Z,55.18
2017-12-19T00:56:53.763Z,53.95
2017-12-19T00:57:53.725Z,53.28
2017-12-19T00:58:53.723Z,52.53
2017-12-19T00:59:53.635Z,52.06
2017-12-19T01:00:53.594Z,52.15
2017-12-19T01:01:53.549Z,52.06
2017-12-19T01:02:53.505Z,52.44
2017-12-19T01:03:53.462Z,50.92
2017-12-19T01:04:53.421Z,50.45
2017-12-19T01:05:53.378Z,50.07
2017-12-19T01:06:53.337Z,49.50
2017-12-19T01:07:53.290Z,49.22
2017-12-19T01:08:53.258Z,49.12
2017-12-19T01:09:53.208Z,48.74
2017-12-19T01:10:53.163Z,48.74
2017-12-19T01:11:53.122Z,48.46
2017-12-19T01:12:53.077Z,49.98
2017-12-19T01:13:53.032Z,51.30
2017-12-19T01:14:53.000Z,51.20
2017-12-19T01:15:52.948Z,52.34
2017-12-19T01:16:52.909Z,54.04
2017-12-19T01:17:52.878Z,55.37
2017-12-19T01:18:52.848Z,56.32
2017-12-19T01:19:52.792Z,55.94
2017-12-19T01:20:52.795Z,57.07
2017-12-19T01:21:52.712Z,56.51
2017-12-19T01:22:52.661Z,56.15
2017-12-19T01:23:52.620Z,56.72
2017-12-19T01:24:52.570Z,57.10
2017-12-19T01:25:52.532Z,57.29
2017-12-19T01:26:52.488Z,57.39
2017-12-19T01:27:52.446Z,58.33
2017-12-19T01:28:53.044Z,58.24
2017-12-19T01:29:52.370Z,58.24
2017-12-19T01:30:52.313Z,60.22
2017-12-19T01:31:52.270Z,58.62
2017-12-19T01:32:52.228Z,58.71
2017-12-19T01:33:52.188Z,59.00
2017-12-19T01:34:52.155Z,58.71
2017-12-19T01:35:52.103Z,58.43
2017-12-19T01:36:52.058Z,59.47
2017-12-19T01:37:52.015Z,58.90
2017-12-19T01:38:51.975Z,58.24
2017-12-19T01:39:51.939Z,59.09
2017-12-19T01:40:51.904Z,58.81
2017-12-19T01:41:51.882Z,58.24
2017-12-19T01:42:51.817Z,58.52
2017-12-19T01:43:51.782Z,58.90
2017-12-19T01:44:51.720Z,59.19
2017-12-19T01:45:51.684Z,59.56
2017-12-19T01:46:51.635Z,60.80
2017-12-19T01:47:51.589Z,60.51
2017-12-19T01:48:51.550Z,60.99
2017-12-19T01:49:51.508Z,61.08
2017-12-19T01:50:51.464Z,60.80
2017-12-19T01:51:51.425Z,61.08
2017-12-19T01:52:51.389Z,62.31
2017-12-19T01:53:51.339Z,61.65
2017-12-19T01:54:51.296Z,58.81
2017-12-19T01:55:51.257Z,57.29
2017-12-19T01:56:51.216Z,55.21
2017-12-19T01:57:51.171Z,55.21
2017-12-19T01:58:51.131Z,55.49
2017-12-19T01:59:51.090Z,56.72
2017-12-19T02:00:51.051Z,56.91
2017-12-19T02:01:51.005Z,57.67
2017-12-19T02:02:50.956Z,58.52
2017-12-19T02:03:50.916Z,58.43
2017-12-19T02:04:50.871Z,58.43
2017-12-19T02:05:50.831Z,59.38
2017-12-19T02:06:50.794Z,59.94
2017-12-19T02:07:50.744Z,59.94
2017-12-19T02:08:50.708Z,60.51
2017-12-19T02:09:50.667Z,59.75
2017-12-19T02:10:50.665Z,60.80
2017-12-19T02:11:50.576Z,60.13
2017-12-19T02:12:50.539Z,60.03
2017-12-19T02:13:50.494Z,60.89
2017-12-19T02:14:50.451Z,60.13
2017-12-19T02:15:50.407Z,60.22
2017-12-19T02:16:50.366Z,60.13
2017-12-19T02:17:50.327Z,60.13
2017-12-19T02:18:50.280Z,60.13
2017-12-19T02:19:50.241Z,59.94
2017-12-19T02:20:50.194Z,60.61
2017-12-19T02:21:50.151Z,60.99
2017-12-19T02:22:50.121Z,61.83
2017-12-19T02:23:50.069Z,61.65
2017-12-19T02:24:50.030Z,60.61
2017-12-19T02:25:49.984Z,60.13
2017-12-19T02:26:49.946Z,59.75
2017-12-19T02:27:49.903Z,58.43
2017-12-19T02:28:49.863Z,57.39
2017-12-19T02:29:49.815Z,57.57
2017-12-19T02:30:49.773Z,58.62
2017-12-19T02:31:49.728Z,59.94
2017-12-19T02:32:49.690Z,60.89
2017-12-19T02:33:49.648Z,59.56
2017-12-19T02:34:49.607Z,59.56
2017-12-19T02:35:49.560Z,59.56
2017-12-19T02:36:49.521Z,58.71
2017-12-19T02:37:49.474Z,59.84
2017-12-19T02:38:49.433Z,60.03
2017-12-19T02:39:49.390Z,62.50
2017-12-19T02:40:49.348Z,63.45
2017-12-19T02:41:49.310Z,62.50
2017-12-19T02:42:49.265Z,62.31
2017-12-19T02:43:49.222Z,62.12
2017-12-19T02:44:49.186Z,63.16
2017-12-19T02:45:49.137Z,63.92
2017-12-19T02:46:49.113Z,64.01
2017-12-19T02:47:49.060Z,63.45
2017-12-19T02:48:49.015Z,62.50
2017-12-19T02:49:48.972Z,61.27
2017-12-19T02:50:48.936Z,60.61
2017-12-19T02:51:48.885Z,62.02
2017-12-19T02:52:48.843Z,61.83
2017-12-19T02:53:48.802Z,64.01
2017-12-19T02:54:48.756Z,63.07
2017-12-19T02:55:48.722Z,62.59
2017-12-19T02:56:48.675Z,63.16
2017-12-19T02:57:48.629Z,63.16
2017-12-19T02:58:48.587Z,63.07
2017-12-19T02:59:48.545Z,63.54
2017-12-19T03:00:48.504Z,62.97
2017-12-19T03:01:48.466Z,62.88
2017-12-19T03:02:48.425Z,62.31
2017-12-19T03:03:48.377Z,61.65
2017-12-19T03:04:48.336Z,61.83
2017-12-19T03:05:48.295Z,61.83
2017-12-19T03:06:48.251Z,62.50
2017-12-19T03:07:48.217Z,63.45
2017-12-19T03:08:48.193Z,63.73
2017-12-19T03:09:48.126Z,64.20
2017-12-19T03:10:48.081Z,63.92
2017-12-19T03:11:48.041Z,63.64
2017-12-19T03:12:47.996Z,64.11
2017-12-19T03:13:47.956Z,64.20
2017-12-19T03:14:47.912Z,64.68
2017-12-19T03:15:47.874Z,65.06
2017-12-19T03:16:47.844Z,65.72
2017-12-19T03:17:47.799Z,66.38
2017-12-19T03:18:47.745Z,66.38
2017-12-19T03:19:47.701Z,67.52
2017-12-19T03:20:47.658Z,67.14
2017-12-19T03:21:47.617Z,67.05
2017-12-19T03:22:47.576Z,67.24
2017-12-19T03:23:47.534Z,66.76
2017-12-19T03:24:47.495Z,66.57
2017-12-19T03:25:47.448Z,66.47
2017-12-19T03:26:47.409Z,67.24
2017-12-19T03:27:47.368Z,67.52
2017-12-19T03:28:47.323Z,67.52
2017-12-19T03:29:47.282Z,67.61
2017-12-19T03:30:47.244Z,67.14
2017-12-19T03:31:47.195Z,67.33
2017-12-19T03:32:47.154Z,65.53
2017-12-19T03:33:47.113Z,65.25
2017-12-19T03:34:47.068Z,66.19
2017-12-19T03:35:47.031Z,66.57
2017-12-19T03:36:46.985Z,66.47
2017-12-19T03:37:46.944Z,65.91
2017-12-19T03:38:46.899Z,65.15
2017-12-19T03:39:46.872Z,64.11
2017-12-19T03:40:46.818Z,62.88
2017-12-19T03:41:46.782Z,62.88
2017-12-19T03:42:46.733Z,61.93
2017-12-19T03:43:46.754Z,60.89
2017-12-19T03:44:46.653Z,60.80
2017-12-19T03:45:46.605Z,60.99
2017-12-19T03:46:46.573Z,60.70
2017-12-19T03:47:46.523Z,62.59
2017-12-19T03:48:46.486Z,62.21
2017-12-19T03:49:46.454Z,64.11
2017-12-19T03:50:46.395Z,63.92
2017-12-19T03:51:46.356Z,62.21
2017-12-19T03:52:46.315Z,62.40
2017-12-19T03:53:46.288Z,62.40
2017-12-19T03:54:46.231Z,62.88
2017-12-19T03:55:46.186Z,62.97
2017-12-19T03:56:46.142Z,62.50
2017-12-19T03:57:46.098Z,62.97
2017-12-19T03:58:46.064Z,63.16
2017-12-19T03:59:46.038Z,63.16
2017-12-19T04:00:45.978Z,63.92
2017-12-19T04:01:45.931Z,63.16
2017-12-19T04:02:45.894Z,63.16
2017-12-19T04:03:45.845Z,62.69
2017-12-19T04:04:45.804Z,62.40
2017-12-19T04:05:45.761Z,61.83
2017-12-19T04:06:45.719Z,61.65
2017-12-19T04:07:45.674Z,62.78
2017-12-19T04:08:45.634Z,62.40
2017-12-19T04:09:45.599Z,61.74
2017-12-19T04:10:45.553Z,60.99
2017-12-19T04:11:45.510Z,61.83
2017-12-19T04:12:45.471Z,61.74
2017-12-19T04:13:45.426Z,63.07
2017-12-19T04:14:45.382Z,62.21
2017-12-19T04:15:45.350Z,62.88
2017-12-19T04:16:45.298Z,63.16
2017-12-19T04:17:45.257Z,63.26
2017-12-19T04:18:45.213Z,63.16
2017-12-19T04:19:45.174Z,62.88
2017-12-19T04:20:45.127Z,63.07
2017-12-19T04:21:45.088Z,63.26
2017-12-19T04:22:45.042Z,62.97
2017-12-19T04:23:45.012Z,62.21
2017-12-19T04:24:44.967Z,61.93
2017-12-19T04:25:44.927Z,61.65
2017-12-19T04:26:44.874Z,61.55
2017-12-19T04:27:44.838Z,61.93
2017-12-19T04:28:44.800Z,63.26
2017-12-19T04:29:44.751Z,63.45
2017-12-19T04:30:44.711Z,63.35
2017-12-19T04:31:44.664Z,63.35
2017-12-19T04:32:44.625Z,63.26
2017-12-19T04:33:44.582Z,62.88
2017-12-19T04:34:44.535Z,63.82
2017-12-19T04:35:44.495Z,62.78
2017-12-19T04:36:44.456Z,62.40
2017-12-19T04:37:44.416Z,62.31
2017-12-19T04:38:44.376Z,61.93
2017-12-19T04:39:44.328Z,60.80
2017-12-19T04:40:44.302Z,59.84
2017-12-19T04:41:44.239Z,59.94
2017-12-19T04:42:44.202Z,59.47
2017-12-19T04:43:44.158Z,59.00
2017-12-19T04:44:44.120Z,59.75
2017-12-19T04:45:44.080Z,59.84
2017-12-19T04:46:44.034Z,59.94
2017-12-19T04:47:43.991Z,59.47
2017-12-19T04:48:43.958Z,57.29
2017-12-19T04:49:43.920Z,59.38
2017-12-19T04:50:43.872Z,57.57
2017-12-19T04:51:43.826Z,58.24
2017-12-19T04:52:43.795Z,57.48
2017-12-19T04:53:43.736Z,58.52
2017-12-19T04:54:43.694Z,58.62
2017-12-19T04:55:43.655Z,57.86
2017-12-19T04:56:43.609Z,58.33
2017-12-19T04:57:43.569Z,57.01
2017-12-19T04:58:43.530Z,56.91
2017-12-19T04:59:43.487Z,56.53
2017-12-19T05:00:43.441Z,55.11
2017-12-19T05:01:43.401Z,55.02
2017-12-19T05:02:43.352Z,55.02
2017-12-19T05:03:43.310Z,56.15
2017-12-19T05:04:43.271Z,56.63
2017-12-19T05:05:43.234Z,54.26
2017-12-19T05:06:43.182Z,54.55
2017-12-19T05:07:43.144Z,53.88
2017-12-19T05:08:43.114Z,53.13
2017-12-19T05:09:43.059Z,52.65
2017-12-19T05:10:43.016Z,52.75
2017-12-19T05:11:42.973Z,52.65
2017-12-19T05:12:42.958Z,52.46
2017-12-19T05:13:42.888Z,52.46
2017-12-19T05:14:42.849Z,53.03
2017-12-19T05:15:42.806Z,52.75
2017-12-19T05:16:42.766Z,52.56
2017-12-19T05:17:42.717Z,52.37
2017-12-19T05:18:42.674Z,52.65
2017-12-19T05:19:42.634Z,53.41
2017-12-19T05:20:42.597Z,53.50
2017-12-19T05:21:42.551Z,52.56
2017-12-19T05:22:42.507Z,52.94
2017-12-19T05:23:42.479Z,53.13
2017-12-19T05:24:42.420Z,52.46
2017-12-19T05:25:42.391Z,52.27
2017-12-19T05:26:42.336Z,52.37
2017-12-19T05:27:42.294Z,53.13
2017-12-19T05:28:42.256Z,52.27
2017-12-19T05:29:42.208Z,52.75
2017-12-19T05:30:42.191Z,52.94
2017-12-19T05:31:42.218Z,52.27
2017-12-19T05:32:42.079Z,52.18
2017-12-19T05:33:42.053Z,51.80
2017-12-19T05:34:41.995Z,50.95
2017-12-19T05:35:41.960Z,51.89
2017-12-19T05:36:41.913Z,51.80
2017-12-19T05:37:41.871Z,51.61
2017-12-19T05:38:41.830Z,50.66
2017-12-19T05:39:41.783Z,51.14
2017-12-19T05:40:41.744Z,50.38
2017-12-19T05:41:41.699Z,49.81
2017-12-19T05:42:41.655Z,50.85
2017-12-19T05:43:41.617Z,50.38
2017-12-19T05:44:41.583Z,50.85
2017-12-19T05:45:41.536Z,52.37
2017-12-19T05:46:41.486Z,50.57
2017-12-19T05:47:41.445Z,51.42
2017-12-19T05:48:41.409Z,51.89
2017-12-19T05:49:41.363Z,51.99
2017-12-19T05:50:41.318Z,52.65
2017-12-19T05:51:41.276Z,52.65
2017-12-19T05:52:41.237Z,53.78
2017-12-19T05:53:41.192Z,54.45
2017-12-19T05:54:41.148Z,53.41
2017-12-19T05:55:41.107Z,52.56
2017-12-19T05:56:41.070Z,53.22
2017-12-19T05:57:41.021Z,50.57
2017-12-19T05:58:40.981Z,48.77
2017-12-19T05:59:40.935Z,49.90
2017-12-19T06:00:40.893Z,50.76
2017-12-19T06:01:40.853Z,49.81
2017-12-19T06:02:40.811Z,49.43
2017-12-19T06:03:40.768Z,49.71
2017-12-19T06:04:40.741Z,50.38
2017-12-19T06:05:40.690Z,50.95
2017-12-19T06:06:40.647Z,49.43
2017-12-19T06:07:40.615Z,46.14
2017-12-19T06:08:40.557Z,46.80
2017-12-19T06:09:40.516Z,45.45
2017-12-19T06:10:40.487Z,41.95
2017-12-19T06:11:40.427Z,45.26
2017-12-19T06:12:40.389Z,42.33
2017-12-19T06:13:40.363Z,41.00
2017-12-19T06:14:40.313Z,41.85
2017-12-19T06:15:40.262Z,44.60
2017-12-19T06:16:40.223Z,39.68
2017-12-19T06:17:40.186Z,43.46
2017-12-19T06:18:40.136Z,38.26
2017-12-19T06:19:40.096Z,42.52
2017-12-19T06:20:40.054Z,40.91
2017-12-19T06:21:40.008Z,37.78
2017-12-19T06:22:39.967Z,38.82
2017-12-19T06:23:39.923Z,42.52
2017-12-19T06:24:39.881Z,39.58
2017-12-19T06:25:39.841Z,35.98
2017-12-19T06:26:39.797Z,32.39
2017-12-19T06:27:39.767Z,30.02
2017-12-19T06:28:39.719Z,28.69
2017-12-19T06:29:39.670Z,28.22
2017-12-19T06:30:39.639Z,33.71
2017-12-19T06:31:39.594Z,30.87
2017-12-19T06:32:39.559Z,31.15
2017-12-19T06:33:39.506Z,32.01
2017-12-19T06:34:39.469Z,32.57
2017-12-19T06:35:39.431Z,32.57
2017-12-19T06:36:39.386Z,30.30
2017-12-19T06:37:39.334Z,29.45
2017-12-19T06:38:39.295Z,28.22
2017-12-19T06:39:39.250Z,27.94
2017-12-19T06:40:39.206Z,27.75
2017-12-19T06:41:39.166Z,30.02
2017-12-19T06:42:39.121Z,29.35
2017-12-19T06:43:39.081Z,30.68
2017-12-19T06:44:39.046Z,35.70
2017-12-19T06:45:38.992Z,30.30
2017-12-19T06:46:38.960Z,28.97
2017-12-19T06:47:38.909Z,30.11
2017-12-19T06:48:38.877Z,28.69
2017-12-19T06:49:38.826Z,34.38
2017-12-19T06:50:38.790Z,32.86
2017-12-19T06:53:09.264Z,32.67
2017-12-19T06:54:09.214Z,33.43
2017-12-19T06:56:01.231Z,30.30
2017-12-19T06:57:00.974Z,31.44
2017-12-19T06:58:52.774Z,26.51
2017-12-19T06:59:52.733Z,26.98
2017-12-19T07:01:44.535Z,30.77
2017-12-19T07:02:44.477Z,32.57
2017-12-19T07:04:36.279Z,32.48
2017-12-19T07:05:36.229Z,32.48
2017-12-19T07:07:28.049Z,34.38
2017-12-19T07:08:27.987Z,32.87
2017-12-19T07:10:19.862Z,35.91
2017-12-19T07:11:19.747Z,38.18
2017-12-19T07:13:11.677Z,34.11
2017-12-19T07:14:11.632Z,35.62
2017-12-19T07:16:04.064Z,35.34
2017-12-19T07:17:03.598Z,36.10
2017-12-19T07:18:55.413Z,36.76
2017-12-19T07:19:55.357Z,39.11
2017-12-19T07:21:47.185Z,35.32
2017-12-19T07:22:47.120Z,33.04
2017-12-19T07:24:38.928Z,30.77
2017-12-19T07:25:38.878Z,32.95
2017-12-19T07:27:30.698Z,28.03
2017-12-19T07:28:30.635Z,25.57
2017-12-19T07:30:22.469Z,27.94
2017-12-19T07:31:22.393Z,26.34
2017-12-19T07:33:14.192Z,27.19
2017-12-19T07:34:14.141Z,26.72
2017-12-19T07:36:06.003Z,24.73
2017-12-19T07:37:05.933Z,25.95
2017-12-19T07:38:57.762Z,24.71
2017-12-19T07:39:57.727Z,23.96
2017-12-19T07:41:49.531Z,24.71
2017-12-19T07:42:49.464Z,26.42
2017-12-19T07:44:41.857Z,26.23
2017-12-19T07:45:41.437Z,29.45
2017-12-19T07:47:33.241Z,26.14
2017-12-19T07:48:33.169Z,23.86
2017-12-19T07:50:24.975Z,23.77
2017-12-19T07:51:24.916Z,23.77
2017-12-19T07:53:16.717Z,20.26
2017-12-19T07:54:16.672Z,18.08
2017-12-19T07:56:08.486Z,16.38
2017-12-19T07:57:08.428Z,16.28
2017-12-19T07:59:00.226Z,14.11
2017-12-19T08:00:00.184Z,15.34
2017-12-19T08:01:51.993Z,13.54
2017-12-19T08:02:51.932Z,12.12
2017-12-19T08:04:43.741Z,8.53
2017-12-19T08:05:43.683Z,7.57
2017-12-19T08:07:35.489Z,9.38
2017-12-19T08:08:35.435Z,14.11
2017-12-19T08:10:27.289Z,14.29
2017-12-19T08:11:27.250Z,17.99
2017-12-19T08:13:19.061Z,12.97
2017-12-19T08:14:19.003Z,10.32
2017-12-19T08:16:10.852Z,10.98
2017-12-19T08:17:10.799Z,8.42
2017-12-19T08:19:02.618Z,12.12
2017-12-19T08:20:03.296Z,10.22
2017-12-19T08:21:54.362Z,8.71
2017-12-19T08:22:54.307Z,12.69
2017-12-19T08:24:46.137Z,7.86
2017-12-19T08:25:46.093Z,9.28
2017-12-19T08:27:37.899Z,11.36
2017-12-19T08:28:37.838Z,12.02
2017-12-19T08:30:29.645Z,12.02
2017-12-19T08:31:29.617Z,9.28
2017-12-19T08:33:21.497Z,11.08
2017-12-19T08:34:21.341Z,13.07
2017-12-19T08:36:13.270Z,9.38
2017-12-19T08:37:13.222Z,8.42
2017-12-19T08:39:05.645Z,10.22
2017-12-19T08:40:05.067Z,10.70
2017-12-19T08:41:56.908Z,8.99
2017-12-19T08:42:56.848Z,9.56
2017-12-19T08:44:48.659Z,7.76
2017-12-19T08:45:48.607Z,7.95
2017-12-19T08:47:40.431Z,14.31
2017-12-19T08:48:40.388Z,13.92
2017-12-19T08:50:32.164Z,17.90
2017-12-19T08:51:32.202Z,17.90
2017-12-19T08:53:23.937Z,13.26
2017-12-19T08:54:23.875Z,15.34
2017-12-19T08:56:15.696Z,16.49
2017-12-19T08:57:15.628Z,17.71
2017-12-19T08:59:07.462Z,19.51
2017-12-19T09:00:07.426Z,16.39
2017-12-19T09:01:59.232Z,13.54
2017-12-19T09:02:59.161Z,8.99
2017-12-19T09:04:51.043Z,7.76
2017-12-19T09:05:50.989Z,8.42
2017-12-19T09:07:42.871Z,8.33
2017-12-19T09:08:42.806Z,9.09
2017-12-19T09:10:34.614Z,4.07
2017-12-19T09:11:34.565Z,4.26
2017-12-19T09:13:26.480Z,8.52
2017-12-19T09:14:26.399Z,6.73
2017-12-19T09:16:18.208Z,10.42
2017-12-19T09:17:18.171Z,10.71
2017-12-19T09:19:09.991Z,10.33
2017-12-19T09:20:09.985Z,8.90
2017-12-19T09:22:01.769Z,3.22
2017-12-19T09:23:01.697Z,1.42
2017-12-19T09:24:53.626Z,0.95
2017-12-19T09:25:53.517Z,0.00
2017-12-19T09:27:45.280Z,0.19
2017-12-19T09:28:45.208Z,1.23
2017-12-19T09:30:37.059Z,3.31
2017-12-19T09:31:36.973Z,5.30
2017-12-19T09:33:28.801Z,2.94
2017-12-19T09:34:28.732Z,3.41
2017-12-19T09:36:20.533Z,5.40
2017-12-19T09:37:20.478Z,5.77
2017-12-19T09:39:12.990Z,7.39
2017-12-19T09:40:12.250Z,7.39
2017-12-19T09:42:04.055Z,5.68
2017-12-19T09:43:03.999Z,7.76
2017-12-19T09:44:55.833Z,7.01
2017-12-19T09:45:55.762Z,5.30
2017-12-19T09:47:48.266Z,5.77
2017-12-19T09:48:47.580Z,3.97
2017-12-19T09:50:39.349Z,1.61
2017-12-19T09:51:39.307Z,3.31
2017-12-19T09:53:31.140Z,0.95
2017-12-19T09:54:31.086Z,0.76
2017-12-19T09:56:22.884Z,0.00
2017-12-19T09:57:22.840Z,0.09
2017-12-19T09:59:14.646Z,0.00
2017-12-19T10:00:14.587Z,0.00
2017-12-19T10:02:06.407Z,0.00
2017-12-19T10:03:06.362Z,0.00
2017-12-19T10:04:58.218Z,0.00
2017-12-19T10:05:58.168Z,0.00
2017-12-19T10:07:49.988Z,0.00
2017-12-19T10:08:49.943Z,0.00
2017-12-19T10:10:41.746Z,0.00
2017-12-19T10:11:41.681Z,0.00
2017-12-19T10:13:33.502Z,0.09
2017-12-19T10:14:33.439Z,0.00
2017-12-19T10:16:25.242Z,0.00
2017-12-19T10:17:25.195Z,0.00
2017-12-19T10:19:18.005Z,0.00
2017-12-19T10:20:17.949Z,0.00
2017-12-19T10:22:09.780Z,0.00
2017-12-19T10:23:09.727Z,0.00
2017-12-19T10:25:01.544Z,0.00
2017-12-19T10:26:01.489Z,0.00
2017-12-19T10:27:53.326Z,0.00
2017-12-19T10:28:53.248Z,0.00
2017-12-19T10:30:45.079Z,2.65
2017-12-19T10:31:45.019Z,1.61
2017-12-19T10:33:36.849Z,3.41
2017-12-19T10:34:36.802Z,3.97
2017-12-19T10:36:28.628Z,0.76
2017-12-19T10:37:28.557Z,1.04
2017-12-19T10:39:20.359Z,0.00
2017-12-19T10:40:20.306Z,0.00
2017-12-19T10:42:12.155Z,0.00
2017-12-19T10:43:12.092Z,0.76
2017-12-19T10:45:03.918Z,1.61
2017-12-19T10:46:03.855Z,0.00
2017-12-19T10:47:55.675Z,0.00
2017-12-19T10:48:55.612Z,0.00
2017-12-19T10:50:47.444Z,0.47
2017-12-19T10:51:47.377Z,0.09
2017-12-19T10:53:39.787Z,1.23
2017-12-19T10:54:39.741Z,0.47
2017-12-19T10:56:31.556Z,0.00
2017-12-19T10:57:31.496Z,1.99
2017-12-19T10:59:23.301Z,0.00
2017-12-19T11:00:23.246Z,0.00
2017-12-19T11:02:15.066Z,0.00
2017-12-19T11:03:15.005Z,0.00
2017-12-19T11:05:06.995Z,0.00
2017-12-19T11:06:06.936Z,0.00
2017-12-19T11:07:59.331Z,0.00
2017-12-19T11:08:58.740Z,0.00
2017-12-19T11:10:50.556Z,0.00
2017-12-19T11:11:50.519Z,0.00
2017-12-19T11:13:42.308Z,0.00
2017-12-19T11:14:42.260Z,0.00
2017-12-19T11:16:34.126Z,0.00
2017-12-19T11:17:34.053Z,0.00
2017-12-19T11:19:26.427Z,0.00
2017-12-19T11:20:25.988Z,0.00
2017-12-19T11:22:17.831Z,0.00
2017-12-19T11:23:17.776Z,0.00
2017-12-19T11:25:09.578Z,0.00
2017-12-19T11:26:09.529Z,0.00
2017-12-19T11:28:01.356Z,0.00
2017-12-19T11:29:01.345Z,0.00
2017-12-19T11:30:53.102Z,0.00
2017-12-19T11:31:53.045Z,0.00
2017-12-19T11:33:44.910Z,0.00
2017-12-19T11:34:44.838Z,0.00
2017-12-19T11:36:36.631Z,0.00
2017-12-19T11:37:36.581Z,0.00
2017-12-19T11:39:28.389Z,0.00
2017-12-19T11:40:28.326Z,0.00
2017-12-19T11:42:20.845Z,0.00
2017-12-19T11:43:20.083Z,0.00
2017-12-19T11:45:11.888Z,0.00
2017-12-19T11:46:11.842Z,0.00
2017-12-19T11:48:03.648Z,0.00
2017-12-19T11:49:03.597Z,0.00
2017-12-19T11:50:55.409Z,0.00
2017-12-19T11:51:55.345Z,0.00
2017-12-19T11:53:47.199Z,0.00
2017-12-19T11:54:47.138Z,0.00
2017-12-19T11:56:38.951Z,0.00
2017-12-19T11:57:38.917Z,0.00
2017-12-19T11:59:30.708Z,0.00
2017-12-19T12:00:30.648Z,0.00
2017-12-19T12:02:22.454Z,0.00
2017-12-19T12:03:22.400Z,0.00
2017-12-19T12:05:14.295Z,0.00
2017-12-19T12:06:14.155Z,0.00
2017-12-19T12:08:05.977Z,0.00
2017-12-19T12:09:05.911Z,0.00
2017-12-19T12:10:05.871Z,0.00
2017-12-19T12:11:05.824Z,0.00
2017-12-19T12:12:05.783Z,0.00
2017-12-19T12:13:05.745Z,0.00
2017-12-19T12:14:05.700Z,0.00
2017-12-19T12:15:05.662Z,0.00
2017-12-19T12:16:05.625Z,0.00
2017-12-19T12:17:05.578Z,0.00
2017-12-19T12:18:05.532Z,0.00
2017-12-19T12:19:05.496Z,0.00
2017-12-19T12:20:05.476Z,0.00
2017-12-19T12:21:05.412Z,0.00
2017-12-19T12:22:05.365Z,0.00
2017-12-19T12:23:05.322Z,0.00
2017-12-19T12:24:05.282Z,0.00
2017-12-19T12:25:05.240Z,0.00
2017-12-19T12:26:05.199Z,0.00
2017-12-19T12:27:05.157Z,0.00
2017-12-19T12:28:05.130Z,0.00
2017-12-19T12:29:05.079Z,0.00
2017-12-19T12:30:05.036Z,0.00
2017-12-19T12:31:05.082Z,0.00
2017-12-19T12:32:04.963Z,0.00
2017-12-19T12:33:04.916Z,0.00
2017-12-19T12:34:04.864Z,0.00
2017-12-19T12:35:04.835Z,0.00
2017-12-19T12:36:04.786Z,0.00
2017-12-19T12:37:04.741Z,0.00
2017-12-19T12:38:04.700Z,0.00
2017-12-19T12:39:04.657Z,0.00
2017-12-19T12:40:04.619Z,0.00
2017-12-19T12:41:04.576Z,0.00
2017-12-19T12:42:04.533Z,0.00
2017-12-19T12:43:04.492Z,0.00
2017-12-19T12:44:04.449Z,0.00
2017-12-19T12:45:04.428Z,0.00
2017-12-19T12:46:04.391Z,0.00
2017-12-19T12:47:04.327Z,0.00
2017-12-19T12:48:04.284Z,0.00
2017-12-19T12:49:04.261Z,0.00
2017-12-19T12:50:04.197Z,0.00
2017-12-19T12:51:04.161Z,0.00
2017-12-19T12:52:04.203Z,0.00
2017-12-19T12:53:04.072Z,0.00
2017-12-19T12:54:04.036Z,0.00
2017-12-19T12:55:04.000Z,0.00
2017-12-19T12:56:03.957Z,0.00
2017-12-19T12:57:03.911Z,0.00
2017-12-19T12:58:03.886Z,0.00
2017-12-19T12:59:03.824Z,0.00
2017-12-19T13:00:03.805Z,0.00
2017-12-19T13:01:03.743Z,0.00
2017-12-19T13:02:03.709Z,0.00
2017-12-19T13:03:03.658Z,0.00
2017-12-19T13:04:03.629Z,0.00
2017-12-19T13:05:03.600Z,0.00
2017-12-19T13:06:03.533Z,0.00
2017-12-19T13:07:03.490Z,0.00
2017-12-19T13:08:03.449Z,0.00
2017-12-19T13:09:03.408Z,0.00
2017-12-19T13:10:03.379Z,0.00
2017-12-19T13:11:03.335Z,0.00
2017-12-19T13:12:03.291Z,0.00
2017-12-19T13:13:03.242Z,0.00
2017-12-19T13:14:03.212Z,0.00
2017-12-19T13:15:03.175Z,0.00
2017-12-19T13:16:03.117Z,0.00
2017-12-19T13:17:03.076Z,0.00
2017-12-19T13:18:03.032Z,0.00
2017-12-19T13:19:02.991Z,0.00
2017-12-19T13:20:02.959Z,0.00
2017-12-19T13:21:02.913Z,0.00
2017-12-19T13:22:02.864Z,0.00
2017-12-19T13:23:02.824Z,0.00
2017-12-19T13:24:02.784Z,0.00
2017-12-19T13:25:02.741Z,0.00
2017-12-19T13:26:02.699Z,0.00
2017-12-19T13:27:02.696Z,0.00
2017-12-19T13:28:02.619Z,0.00
2017-12-19T13:29:02.578Z,0.00
2017-12-19T13:30:02.541Z,0.00
2017-12-19T13:31:02.490Z,0.00
2017-12-19T13:32:02.458Z,0.00
2017-12-19T13:33:02.410Z,0.00
2017-12-19T13:34:02.365Z,0.00
2017-12-19T13:35:03.337Z,0.00
2017-12-19T13:36:02.282Z,0.00
2017-12-19T13:37:02.242Z,0.00
2017-12-19T13:38:02.204Z,0.00
2017-12-19T13:39:02.159Z,0.00
2017-12-19T13:40:02.120Z,0.00
2017-12-19T13:41:02.073Z,0.00
2017-12-19T13:42:02.034Z,0.00
2017-12-19T13:43:01.992Z,0.00
2017-12-19T13:44:01.951Z,0.00
2017-12-19T13:45:01.911Z,0.00
2017-12-19T13:46:01.866Z,0.00
2017-12-19T13:47:01.833Z,0.00
2017-12-19T13:48:01.788Z,0.00
2017-12-19T13:49:01.786Z,0.00
2017-12-19T13:50:01.707Z,0.00
2017-12-19T13:51:01.661Z,0.00
2017-12-19T13:52:01.628Z,0.00
2017-12-19T13:53:01.586Z,0.00
2017-12-19T13:54:01.535Z,0.00
2017-12-19T13:55:01.552Z,0.00
2017-12-19T13:57:31.976Z,0.00
2017-12-19T13:58:31.921Z,0.00
2017-12-19T14:00:23.791Z,0.00
2017-12-19T14:01:23.744Z,0.00
2017-12-19T14:03:15.535Z,0.00
2017-12-19T14:04:15.542Z,0.00
2017-12-19T14:06:07.460Z,0.00
2017-12-19T14:07:07.384Z,0.00
2017-12-19T14:08:59.913Z,0.00
2017-12-19T14:09:59.362Z,0.00
2017-12-19T14:11:51.129Z,0.00
2017-12-19T14:12:51.085Z,0.00
2017-12-19T14:14:42.945Z,0.00
2017-12-19T14:15:42.890Z,0.00
2017-12-19T14:17:34.683Z,0.00
2017-12-19T14:18:34.619Z,0.00
2017-12-19T14:20:26.507Z,0.00
2017-12-19T14:21:26.455Z,0.00
2017-12-19T14:23:18.242Z,0.00
2017-12-19T14:24:18.199Z,0.00
2017-12-19T14:26:10.118Z,0.00
2017-12-19T14:27:10.058Z,0.00
2017-12-19T14:29:01.856Z,0.00
2017-12-19T14:30:01.812Z,0.00
2017-12-19T14:31:01.772Z,0.00
2017-12-19T14:32:01.727Z,0.00
2017-12-19T14:33:01.690Z,0.00
2017-12-19T14:34:01.645Z,0.00
2017-12-19T14:35:01.683Z,0.00
2017-12-19T14:36:01.573Z,0.00
2017-12-19T14:37:01.521Z,0.00
2017-12-19T14:38:01.472Z,0.00
2017-12-19T14:39:01.474Z,0.00
2017-12-19T14:40:01.511Z,0.00
2017-12-19T14:41:01.344Z,0.00
2017-12-19T14:42:01.361Z,0.00
2017-12-19T14:43:01.267Z,0.00
2017-12-19T14:44:01.245Z,0.00
2017-12-19T14:45:01.185Z,0.00
2017-12-19T14:46:01.151Z,0.00
2017-12-19T14:47:01.105Z,0.00
2017-12-19T14:48:01.057Z,0.00
2017-12-19T14:49:01.014Z,0.00
2017-12-19T14:50:00.996Z,0.00